createdAt,value
2023-08-30T00:00:55.475Z,7.50
2023-08-30T00:10:59.681Z,8.73
2023-08-30T00:21:03.871Z,8.10
2023-08-30T00:31:07.385Z,8.18
2023-08-30T00:41:11.453Z,7.90
2023-08-30T00:51:14.474Z,7.82
2023-08-30T01:01:19.753Z,8.23
2023-08-30T01:11:28.093Z,10.93
2023-08-30T01:21:45.928Z,8.75
2023-08-30T01:31:51.046Z,8.60
2023-08-30T01:41:59.791Z,8.43
2023-08-30T01:52:04.541Z,11.00
2023-08-30T02:02:07.241Z,11.18
2023-08-30T02:12:16.740Z,11.52
2023-08-30T02:22:19.513Z,10.77
2023-08-30T02:32:23.560Z,11.68
2023-08-30T02:42:27.139Z,12.00
2023-08-30T02:52:31.227Z,11.43
2023-08-30T03:02:34.105Z,11.88
2023-08-30T03:12:38.197Z,13.13
2023-08-30T03:22:40.910Z,14.63
2023-08-30T03:32:45.002Z,16.63
2023-08-30T03:42:47.728Z,15.30
2023-08-30T03:52:51.897Z,15.45
2023-08-30T04:02:54.654Z,18.25
2023-08-30T04:12:58.770Z,15.13
2023-08-30T04:23:02.669Z,15.07
2023-08-30T04:33:07.382Z,18.00
2023-08-30T04:43:10.143Z,21.08
2023-08-30T04:53:14.169Z,16.67
2023-08-30T05:03:16.892Z,16.05
2023-08-30T05:13:21.134Z,17.70
2023-08-30T05:23:23.889Z,17.95
2023-08-30T05:33:28.036Z,17.40
2023-08-30T05:43:30.709Z,15.32
2023-08-30T05:53:34.833Z,16.67
2023-08-30T06:03:37.628Z,14.48
2023-08-30T06:13:41.684Z,17.45
2023-08-30T06:23:44.332Z,15.30
2023-08-30T06:33:49.266Z,17.67
2023-08-30T06:43:51.936Z,18.55
2023-08-30T06:54:01.336Z,15.77
2023-08-30T07:04:04.391Z,15.80
2023-08-30T07:14:08.589Z,15.88
2023-08-30T07:24:11.494Z,14.20
2023-08-30T07:34:15.941Z,14.88
2023-08-30T07:44:20.840Z,13.40
2023-08-30T07:54:25.024Z,13.20
2023-08-30T08:04:27.952Z,15.00
2023-08-30T08:14:32.227Z,13.07
2023-08-30T08:24:35.051Z,15.15
2023-08-30T08:34:39.238Z,13.48
2023-08-30T08:44:43.657Z,12.57
2023-08-30T08:54:47.885Z,11.73
2023-08-30T09:04:50.727Z,9.80
2023-08-30T09:14:58.911Z,14.48
2023-08-30T09:25:01.837Z,11.73
2023-08-30T09:35:08.328Z,12.48
2023-08-30T09:45:20.058Z,9.68
2023-08-30T09:55:25.789Z,11.68
2023-08-30T10:05:29.090Z,9.90
2023-08-30T10:15:37.172Z,11.20
2023-08-30T10:25:40.654Z,11.43
2023-08-30T10:35:52.460Z,9.57
2023-08-30T10:46:01.695Z,10.23
2023-08-30T10:56:15.653Z,9.52
2023-08-30T11:06:20.427Z,11.05
2023-08-30T11:16:27.524Z,11.85
2023-08-30T11:26:30.479Z,16.67
2023-08-30T11:36:37.767Z,13.57
2023-08-30T11:46:40.489Z,11.95
2023-08-30T11:56:45.090Z,15.50
2023-08-30T12:06:54.321Z,10.65
2023-08-30T12:17:01.816Z,12.10
2023-08-30T12:27:05.758Z,14.45
2023-08-30T12:37:09.785Z,14.73
2023-08-30T12:47:15.004Z,13.18
2023-08-30T12:57:19.029Z,11.77
2023-08-30T13:07:21.666Z,15.18
2023-08-30T13:17:25.678Z,12.30
2023-08-30T13:27:29.395Z,17.08
2023-08-30T13:37:33.506Z,15.55
2023-08-30T13:47:36.218Z,18.00
2023-08-30T13:57:40.281Z,18.60
2023-08-30T14:07:42.942Z,19.30
2023-08-30T14:17:46.965Z,21.77
2023-08-30T14:27:50.061Z,21.88
2023-08-30T14:37:54.074Z,18.23
2023-08-30T14:47:56.759Z,20.48
2023-08-30T14:58:00.832Z,12.55
2023-08-30T15:08:03.754Z,11.75
2023-08-30T15:18:08.127Z,12.15
2023-08-30T15:28:10.943Z,12.77
2023-08-30T15:38:15.178Z,14.50
2023-08-30T15:48:18.044Z,15.20
2023-08-30T15:58:22.365Z,13.70
2023-08-30T16:08:28.777Z,11.00
2023-08-30T16:18:33.354Z,2.83
2023-08-30T16:28:37.597Z,3.15
2023-08-30T16:38:41.839Z,2.50
2023-08-30T16:48:44.517Z,4.28
2023-08-30T16:58:48.672Z,3.72
2023-08-30T17:08:51.586Z,3.47
2023-08-30T17:18:55.582Z,3.42
2023-08-30T17:28:58.277Z,4.05
2023-08-30T17:39:02.283Z,6.90
2023-08-30T17:49:05.027Z,5.63
2023-08-30T17:59:09.150Z,6.13
2023-08-30T18:09:15.726Z,6.13
2023-08-30T18:19:20.186Z,7.22
2023-08-30T18:29:24.704Z,5.95
2023-08-30T18:39:28.869Z,5.88
2023-08-30T18:49:31.636Z,6.82
2023-08-30T18:59:36.003Z,5.85
2023-08-30T19:09:39.276Z,7.43
2023-08-30T19:19:43.354Z,6.57
2023-08-30T19:29:47.501Z,5.20
2023-08-30T19:39:51.665Z,9.40
2023-08-30T19:49:54.413Z,7.35
2023-08-30T19:59:58.393Z,10.32
2023-08-30T20:10:01.090Z,8.45
2023-08-30T20:20:08.106Z,5.70
2023-08-30T20:30:11.580Z,6.47
2023-08-30T20:40:16.116Z,4.90
2023-08-30T20:50:18.791Z,3.50
2023-08-30T21:00:23.008Z,4.38
2023-08-30T21:10:25.807Z,3.65
2023-08-30T21:20:29.783Z,4.25
2023-08-30T21:30:33.434Z,5.78
2023-08-30T21:40:38.689Z,7.55
2023-08-30T21:50:41.459Z,4.97
2023-08-30T22:00:45.508Z,4.07
2023-08-30T22:10:48.208Z,6.47
2023-08-30T22:20:52.684Z,5.43
2023-08-30T22:30:55.549Z,12.43
2023-08-30T22:41:00.524Z,5.72
2023-08-30T22:51:05.075Z,4.28
2023-08-30T23:01:09.939Z,6.80
2023-08-30T23:11:12.752Z,3.13
2023-08-30T23:21:17.413Z,6.18
2023-08-30T23:31:20.246Z,4.75
2023-08-30T23:41:24.241Z,4.35
2023-08-30T23:51:26.952Z,3.58
